sensor_id;sensor_type;location;lat;lon;timestamp;P1;durP1;ratioP1;P2;durP2;ratioP2
47053;SDS011;32811;52.382;5.270;2022-12-08T00:01:08;2.17;;;1.42;;
47053;SDS011;32811;52.382;5.270;2022-12-08T00:03:37;1.92;;;0.77;;
47053;SDS011;32811;52.382;5.270;2022-12-08T00:06:07;3.33;;;0.70;;
47053;SDS011;32811;52.382;5.270;2022-12-08T00:08:59;2.85;;;0.80;;
47053;SDS011;32811;52.382;5.270;2022-12-08T00:11:44;2.45;;;0.75;;
47053;SDS011;32811;52.382;5.270;2022-12-08T00:14:11;2.70;;;0.70;;
47053;SDS011;32811;52.382;5.270;2022-12-08T00:16:38;10.90;;;0.93;;
47053;SDS011;32811;52.382;5.270;2022-12-08T00:19:05;2.50;;;0.65;;
47053;SDS011;32811;52.382;5.270;2022-12-08T00:21:31;1.20;;;0.55;;
47053;SDS011;32811;52.382;5.270;2022-12-08T00:23:59;6.30;;;1.85;;
47053;SDS011;32811;52.382;5.270;2022-12-08T00:26:26;4.70;;;1.33;;
47053;SDS011;32811;52.382;5.270;2022-12-08T00:28:52;3.20;;;1.55;;
47053;SDS011;32811;52.382;5.270;2022-12-08T00:31:19;3.65;;;1.10;;
47053;SDS011;32811;52.382;5.270;2022-12-08T00:33:46;3.50;;;0.75;;
47053;SDS011;32811;52.382;5.270;2022-12-08T00:36:13;2.10;;;0.70;;
47053;SDS011;32811;52.382;5.270;2022-12-08T00:38:40;3.67;;;0.60;;
47053;SDS011;32811;52.382;5.270;2022-12-08T00:41:14;4.38;;;1.63;;
47053;SDS011;32811;52.382;5.270;2022-12-08T00:43:43;4.03;;;1.10;;
47053;SDS011;32811;52.382;5.270;2022-12-08T00:46:09;2.42;;;0.60;;
47053;SDS011;32811;52.382;5.270;2022-12-08T00:48:37;6.35;;;1.55;;
47053;SDS011;32811;52.382;5.270;2022-12-08T00:51:04;3.92;;;1.08;;
47053;SDS011;32811;52.382;5.270;2022-12-08T00:53:31;1.35;;;0.90;;
47053;SDS011;32811;52.382;5.270;2022-12-08T00:55:59;3.95;;;0.80;;
47053;SDS011;32811;52.382;5.270;2022-12-08T00:58:27;1.25;;;0.50;;
47053;SDS011;32811;52.382;5.270;2022-12-08T01:00:54;7.32;;;1.00;;
47053;SDS011;32811;52.382;5.270;2022-12-08T01:03:21;4.13;;;0.70;;
47053;SDS011;32811;52.382;5.270;2022-12-08T01:05:47;3.75;;;0.98;;
47053;SDS011;32811;52.382;5.270;2022-12-08T01:08:14;1.50;;;0.60;;
47053;SDS011;32811;52.382;5.270;2022-12-08T01:10:41;1.05;;;0.55;;
47053;SDS011;32811;52.382;5.270;2022-12-08T01:13:08;2.42;;;0.80;;
47053;SDS011;32811;52.382;5.270;2022-12-08T01:15:34;2.25;;;0.57;;
47053;SDS011;32811;52.382;5.270;2022-12-08T01:18:02;2.13;;;1.08;;
47053;SDS011;32811;52.382;5.270;2022-12-08T01:20:28;3.80;;;0.90;;
47053;SDS011;32811;52.382;5.270;2022-12-08T01:22:55;3.83;;;0.57;;
47053;SDS011;32811;52.382;5.270;2022-12-08T01:25:22;11.23;;;0.77;;
47053;SDS011;32811;52.382;5.270;2022-12-08T01:27:50;3.20;;;0.98;;
47053;SDS011;32811;52.382;5.270;2022-12-08T01:30:17;8.82;;;0.95;;
47053;SDS011;32811;52.382;5.270;2022-12-08T01:32:45;1.40;;;0.80;;
47053;SDS011;32811;52.382;5.270;2022-12-08T01:35:13;5.28;;;0.90;;
47053;SDS011;32811;52.382;5.270;2022-12-08T01:37:42;1.40;;;0.40;;
47053;SDS011;32811;52.382;5.270;2022-12-08T01:40:09;1.95;;;0.47;;
47053;SDS011;32811;52.382;5.270;2022-12-08T01:42:35;2.85;;;1.05;;
47053;SDS011;32811;52.382;5.270;2022-12-08T01:45:04;1.73;;;0.28;;
47053;SDS011;32811;52.382;5.270;2022-12-08T01:47:46;1.55;;;0.60;;
47053;SDS011;32811;52.382;5.270;2022-12-08T01:50:15;1.63;;;0.93;;
47053;SDS011;32811;52.382;5.270;2022-12-08T01:52:47;1.88;;;0.73;;
47053;SDS011;32811;52.382;5.270;2022-12-08T01:55:17;0.30;;;0.20;;
47053;SDS011;32811;52.382;5.270;2022-12-08T01:57:51;3.20;;;0.30;;
47053;SDS011;32811;52.382;5.270;2022-12-08T02:00:23;2.00;;;0.30;;
47053;SDS011;32811;52.382;5.270;2022-12-08T02:02:57;2.42;;;0.35;;
47053;SDS011;32811;52.382;5.270;2022-12-08T02:05:33;2.10;;;0.20;;
47053;SDS011;32811;52.382;5.270;2022-12-08T02:08:03;1.63;;;0.60;;
47053;SDS011;32811;52.382;5.270;2022-12-08T02:10:34;1.45;;;0.47;;
47053;SDS011;32811;52.382;5.270;2022-12-08T02:13:04;0.90;;;0.50;;
47053;SDS011;32811;52.382;5.270;2022-12-08T02:15:41;2.60;;;0.28;;
47053;SDS011;32811;52.382;5.270;2022-12-08T02:24:36;1.05;;;0.40;;
47053;SDS011;32811;52.382;5.270;2022-12-08T02:29:38;3.42;;;0.20;;
47053;SDS011;32811;52.382;5.270;2022-12-08T02:32:33;1.42;;;0.30;;
47053;SDS011;32811;52.382;5.270;2022-12-08T02:37:58;2.13;;;0.43;;
47053;SDS011;32811;52.382;5.270;2022-12-08T02:40:33;1.48;;;0.25;;
47053;SDS011;32811;52.382;5.270;2022-12-08T02:43:06;1.35;;;0.52;;
47053;SDS011;32811;52.382;5.270;2022-12-08T02:45:43;1.58;;;0.40;;
47053;SDS011;32811;52.382;5.270;2022-12-08T02:48:17;2.17;;;0.25;;
47053;SDS011;32811;52.382;5.270;2022-12-08T02:50:44;3.15;;;0.52;;
47053;SDS011;32811;52.382;5.270;2022-12-08T02:53:11;0.28;;;0.10;;
47053;SDS011;32811;52.382;5.270;2022-12-08T03:03:49;0.57;;;0.10;;
47053;SDS011;32811;52.382;5.270;2022-12-08T03:06:29;1.58;;;0.20;;
47053;SDS011;32811;52.382;5.270;2022-12-08T03:11:38;2.08;;;0.22;;
47053;SDS011;32811;52.382;5.270;2022-12-08T03:14:06;0.40;;;0.40;;
47053;SDS011;32811;52.382;5.270;2022-12-08T03:16:36;0.90;;;0.30;;
47053;SDS011;32811;52.382;5.270;2022-12-08T03:19:13;1.50;;;0.30;;
47053;SDS011;32811;52.382;5.270;2022-12-08T03:21:52;3.95;;;0.43;;
47053;SDS011;32811;52.382;5.270;2022-12-08T03:24:31;0.68;;;0.40;;
47053;SDS011;32811;52.382;5.270;2022-12-08T03:29:33;2.03;;;0.22;;
47053;SDS011;32811;52.382;5.270;2022-12-08T03:32:03;2.95;;;0.40;;
47053;SDS011;32811;52.382;5.270;2022-12-08T03:34:36;2.20;;;0.63;;
47053;SDS011;32811;52.382;5.270;2022-12-08T03:37:06;1.42;;;0.60;;
47053;SDS011;32811;52.382;5.270;2022-12-08T03:39:33;0.50;;;0.17;;
47053;SDS011;32811;52.382;5.270;2022-12-08T03:42:00;3.42;;;1.10;;
47053;SDS011;32811;52.382;5.270;2022-12-08T03:44:26;0.63;;;0.22;;
47053;SDS011;32811;52.382;5.270;2022-12-08T03:46:54;1.17;;;0.40;;
47053;SDS011;32811;52.382;5.270;2022-12-08T03:49:21;1.27;;;0.30;;
47053;SDS011;32811;52.382;5.270;2022-12-08T03:51:48;2.20;;;0.40;;
47053;SDS011;32811;52.382;5.270;2022-12-08T03:54:15;1.42;;;0.40;;
47053;SDS011;32811;52.382;5.270;2022-12-08T03:56:42;2.28;;;0.40;;
47053;SDS011;32811;52.382;5.270;2022-12-08T03:59:09;1.02;;;0.38;;
47053;SDS011;32811;52.382;5.270;2022-12-08T04:01:36;1.08;;;0.30;;
47053;SDS011;32811;52.382;5.270;2022-12-08T04:04:03;1.75;;;0.50;;
47053;SDS011;32811;52.382;5.270;2022-12-08T04:06:30;1.17;;;0.30;;
47053;SDS011;32811;52.382;5.270;2022-12-08T04:08:57;1.17;;;0.85;;
47053;SDS011;32811;52.382;5.270;2022-12-08T04:11:24;6.53;;;0.38;;
47053;SDS011;32811;52.382;5.270;2022-12-08T04:13:51;2.70;;;0.25;;
47053;SDS011;32811;52.382;5.270;2022-12-08T04:16:19;0.50;;;0.10;;
47053;SDS011;32811;52.382;5.270;2022-12-08T04:18:49;3.22;;;0.30;;
47053;SDS011;32811;52.382;5.270;2022-12-08T04:21:16;5.40;;;0.20;;
47053;SDS011;32811;52.382;5.270;2022-12-08T04:23:44;1.73;;;0.38;;
47053;SDS011;32811;52.382;5.270;2022-12-08T04:26:12;1.63;;;0.15;;
47053;SDS011;32811;52.382;5.270;2022-12-08T04:28:39;0.95;;;0.20;;
47053;SDS011;32811;52.382;5.270;2022-12-08T04:31:06;2.58;;;0.40;;
47053;SDS011;32811;52.382;5.270;2022-12-08T04:33:34;2.10;;;0.15;;
47053;SDS011;32811;52.382;5.270;2022-12-08T04:36:02;1.17;;;0.20;;
47053;SDS011;32811;52.382;5.270;2022-12-08T04:38:30;7.45;;;0.20;;
47053;SDS011;32811;52.382;5.270;2022-12-08T04:40:57;2.75;;;0.20;;
47053;SDS011;32811;52.382;5.270;2022-12-08T04:43:24;0.50;;;0.00;;
47053;SDS011;32811;52.382;5.270;2022-12-08T04:45:50;0.20;;;0.10;;
47053;SDS011;32811;52.382;5.270;2022-12-08T04:48:17;5.70;;;0.20;;
47053;SDS011;32811;52.382;5.270;2022-12-08T04:50:44;2.13;;;0.20;;
47053;SDS011;32811;52.382;5.270;2022-12-08T04:53:12;0.57;;;0.10;;
47053;SDS011;32811;52.382;5.270;2022-12-08T04:55:40;3.35;;;0.10;;
47053;SDS011;32811;52.382;5.270;2022-12-08T04:58:12;0.50;;;0.10;;
47053;SDS011;32811;52.382;5.270;2022-12-08T05:00:43;0.25;;;0.05;;
47053;SDS011;32811;52.382;5.270;2022-12-08T05:03:10;1.05;;;0.20;;
47053;SDS011;32811;52.382;5.270;2022-12-08T05:05:37;1.23;;;0.28;;
47053;SDS011;32811;52.382;5.270;2022-12-08T05:08:04;0.82;;;0.80;;
47053;SDS011;32811;52.382;5.270;2022-12-08T05:10:32;0.55;;;0.13;;
47053;SDS011;32811;52.382;5.270;2022-12-08T05:12:58;0.25;;;0.10;;
47053;SDS011;32811;52.382;5.270;2022-12-08T05:15:25;1.80;;;0.20;;
47053;SDS011;32811;52.382;5.270;2022-12-08T05:17:52;0.00;;;0.00;;
47053;SDS011;32811;52.382;5.270;2022-12-08T05:20:19;1.42;;;0.40;;
47053;SDS011;32811;52.382;5.270;2022-12-08T05:22:45;1.35;;;0.20;;
47053;SDS011;32811;52.382;5.270;2022-12-08T05:25:12;0.80;;;0.68;;
47053;SDS011;32811;52.382;5.270;2022-12-08T05:27:40;2.72;;;0.30;;
47053;SDS011;32811;52.382;5.270;2022-12-08T05:30:07;0.17;;;0.10;;
47053;SDS011;32811;52.382;5.270;2022-12-08T05:32:33;0.60;;;0.10;;
47053;SDS011;32811;52.382;5.270;2022-12-08T05:35:00;3.42;;;0.20;;
47053;SDS011;32811;52.382;5.270;2022-12-08T05:37:27;1.55;;;0.10;;
47053;SDS011;32811;52.382;5.270;2022-12-08T05:39:54;1.02;;;0.13;;
47053;SDS011;32811;52.382;5.270;2022-12-08T05:42:21;0.45;;;0.10;;
47053;SDS011;32811;52.382;5.270;2022-12-08T05:44:50;0.70;;;0.13;;
47053;SDS011;32811;52.382;5.270;2022-12-08T05:47:17;1.60;;;0.13;;
47053;SDS011;32811;52.382;5.270;2022-12-08T05:49:43;0.75;;;0.32;;
47053;SDS011;32811;52.382;5.270;2022-12-08T05:52:11;1.85;;;0.10;;
47053;SDS011;32811;52.382;5.270;2022-12-08T05:54:38;0.10;;;0.03;;
47053;SDS011;32811;52.382;5.270;2022-12-08T05:57:05;0.73;;;0.40;;
47053;SDS011;32811;52.382;5.270;2022-12-08T05:59:32;1.90;;;0.13;;
47053;SDS011;32811;52.382;5.270;2022-12-08T06:01:58;0.88;;;0.22;;
47053;SDS011;32811;52.382;5.270;2022-12-08T06:04:25;0.55;;;0.10;;
47053;SDS011;32811;52.382;5.270;2022-12-08T06:06:52;0.28;;;0.22;;
47053;SDS011;32811;52.382;5.270;2022-12-08T06:09:19;0.40;;;0.20;;
47053;SDS011;32811;52.382;5.270;2022-12-08T06:11:46;0.40;;;0.25;;
47053;SDS011;32811;52.382;5.270;2022-12-08T06:14:12;0.52;;;0.20;;
47053;SDS011;32811;52.382;5.270;2022-12-08T06:16:39;1.20;;;0.20;;
47053;SDS011;32811;52.382;5.270;2022-12-08T06:19:06;0.70;;;0.20;;
47053;SDS011;32811;52.382;5.270;2022-12-08T06:21:33;0.55;;;0.20;;
47053;SDS011;32811;52.382;5.270;2022-12-08T06:24:00;1.98;;;0.35;;
47053;SDS011;32811;52.382;5.270;2022-12-08T06:26:27;1.60;;;0.30;;
47053;SDS011;32811;52.382;5.270;2022-12-08T06:28:54;0.30;;;0.13;;
47053;SDS011;32811;52.382;5.270;2022-12-08T06:31:24;1.92;;;0.17;;
47053;SDS011;32811;52.382;5.270;2022-12-08T06:33:52;0.45;;;0.30;;
47053;SDS011;32811;52.382;5.270;2022-12-08T06:36:21;3.53;;;0.50;;
47053;SDS011;32811;52.382;5.270;2022-12-08T06:38:50;12.18;;;2.88;;
47053;SDS011;32811;52.382;5.270;2022-12-08T06:41:17;0.57;;;0.20;;
47053;SDS011;32811;52.382;5.270;2022-12-08T06:43:44;4.50;;;1.15;;
47053;SDS011;32811;52.382;5.270;2022-12-08T06:46:12;0.82;;;0.20;;
47053;SDS011;32811;52.382;5.270;2022-12-08T06:48:41;2.65;;;0.25;;
47053;SDS011;32811;52.382;5.270;2022-12-08T06:51:09;2.38;;;0.35;;
47053;SDS011;32811;52.382;5.270;2022-12-08T06:53:37;2.15;;;0.45;;
47053;SDS011;32811;52.382;5.270;2022-12-08T06:56:04;1.25;;;0.40;;
47053;SDS011;32811;52.382;5.270;2022-12-08T06:58:32;1.00;;;0.35;;
47053;SDS011;32811;52.382;5.270;2022-12-08T07:01:09;2.22;;;0.20;;
47053;SDS011;32811;52.382;5.270;2022-12-08T07:03:38;2.30;;;0.57;;
47053;SDS011;32811;52.382;5.270;2022-12-08T07:06:06;2.55;;;1.02;;
47053;SDS011;32811;52.382;5.270;2022-12-08T07:08:33;2.42;;;0.55;;
47053;SDS011;32811;52.382;5.270;2022-12-08T07:11:07;1.33;;;0.50;;
47053;SDS011;32811;52.382;5.270;2022-12-08T07:13:34;0.47;;;0.20;;
47053;SDS011;32811;52.382;5.270;2022-12-08T07:16:08;0.55;;;0.55;;
47053;SDS011;32811;52.382;5.270;2022-12-08T07:18:36;1.50;;;0.47;;
47053;SDS011;32811;52.382;5.270;2022-12-08T07:21:07;0.65;;;0.55;;
47053;SDS011;32811;52.382;5.270;2022-12-08T07:23:36;1.63;;;0.63;;
47053;SDS011;32811;52.382;5.270;2022-12-08T07:26:04;2.60;;;0.73;;
47053;SDS011;32811;52.382;5.270;2022-12-08T07:28:34;5.60;;;0.60;;
47053;SDS011;32811;52.382;5.270;2022-12-08T07:31:02;2.80;;;1.00;;
47053;SDS011;32811;52.382;5.270;2022-12-08T07:33:30;0.68;;;0.57;;
47053;SDS011;32811;52.382;5.270;2022-12-08T07:36:01;0.73;;;0.50;;
47053;SDS011;32811;52.382;5.270;2022-12-08T07:38:30;0.63;;;0.60;;
47053;SDS011;32811;52.382;5.270;2022-12-08T07:40:57;1.92;;;0.52;;
47053;SDS011;32811;52.382;5.270;2022-12-08T07:43:24;0.85;;;0.60;;
47053;SDS011;32811;52.382;5.270;2022-12-08T07:45:50;2.10;;;0.60;;
47053;SDS011;32811;52.382;5.270;2022-12-08T07:48:17;1.50;;;0.60;;
47053;SDS011;32811;52.382;5.270;2022-12-08T07:50:44;6.05;;;0.95;;
47053;SDS011;32811;52.382;5.270;2022-12-08T07:53:12;0.70;;;0.55;;
47053;SDS011;32811;52.382;5.270;2022-12-08T07:55:39;0.88;;;0.60;;
47053;SDS011;32811;52.382;5.270;2022-12-08T07:58:06;2.67;;;0.70;;
47053;SDS011;32811;52.382;5.270;2022-12-08T08:00:33;1.23;;;0.60;;
47053;SDS011;32811;52.382;5.270;2022-12-08T08:03:01;3.10;;;0.80;;
47053;SDS011;32811;52.382;5.270;2022-12-08T08:05:28;1.30;;;0.60;;
47053;SDS011;32811;52.382;5.270;2022-12-08T08:07:55;0.95;;;0.60;;
47053;SDS011;32811;52.382;5.270;2022-12-08T08:10:21;0.70;;;0.70;;
47053;SDS011;32811;52.382;5.270;2022-12-08T08:12:48;0.75;;;0.50;;
47053;SDS011;32811;52.382;5.270;2022-12-08T08:15:15;1.85;;;0.85;;
47053;SDS011;32811;52.382;5.270;2022-12-08T08:17:43;0.30;;;0.30;;
47053;SDS011;32811;52.382;5.270;2022-12-08T08:20:10;1.10;;;0.32;;
47053;SDS011;32811;52.382;5.270;2022-12-08T08:22:37;0.70;;;0.40;;
47053;SDS011;32811;52.382;5.270;2022-12-08T08:25:03;1.05;;;0.35;;
47053;SDS011;32811;52.382;5.270;2022-12-08T08:27:30;1.42;;;0.63;;
47053;SDS011;32811;52.382;5.270;2022-12-08T08:29:57;3.28;;;0.52;;
47053;SDS011;32811;52.382;5.270;2022-12-08T08:32:24;0.60;;;0.50;;
47053;SDS011;32811;52.382;5.270;2022-12-08T08:34:50;1.33;;;0.70;;
47053;SDS011;32811;52.382;5.270;2022-12-08T08:37:17;0.95;;;0.40;;
47053;SDS011;32811;52.382;5.270;2022-12-08T08:39:44;1.05;;;0.50;;
47053;SDS011;32811;52.382;5.270;2022-12-08T08:42:11;0.82;;;0.77;;
47053;SDS011;32811;52.382;5.270;2022-12-08T08:44:38;1.50;;;1.05;;
47053;SDS011;32811;52.382;5.270;2022-12-08T08:47:04;0.55;;;0.20;;
47053;SDS011;32811;52.382;5.270;2022-12-08T08:49:31;1.35;;;0.35;;
47053;SDS011;32811;52.382;5.270;2022-12-08T08:51:58;2.65;;;0.50;;
47053;SDS011;32811;52.382;5.270;2022-12-08T08:54:24;0.68;;;0.40;;
47053;SDS011;32811;52.382;5.270;2022-12-08T08:56:53;0.40;;;0.40;;
47053;SDS011;32811;52.382;5.270;2022-12-08T08:59:21;1.17;;;0.30;;
47053;SDS011;32811;52.382;5.270;2022-12-08T09:01:48;0.35;;;0.32;;
47053;SDS011;32811;52.382;5.270;2022-12-08T09:04:15;1.10;;;0.25;;
47053;SDS011;32811;52.382;5.270;2022-12-08T09:06:42;2.67;;;0.40;;
47053;SDS011;32811;52.382;5.270;2022-12-08T09:09:10;1.35;;;0.40;;
47053;SDS011;32811;52.382;5.270;2022-12-08T09:11:37;1.58;;;0.40;;
47053;SDS011;32811;52.382;5.270;2022-12-08T09:14:04;0.70;;;0.40;;
47053;SDS011;32811;52.382;5.270;2022-12-08T09:16:31;2.25;;;0.52;;
47053;SDS011;32811;52.382;5.270;2022-12-08T09:19:05;1.48;;;0.50;;
47053;SDS011;32811;52.382;5.270;2022-12-08T09:21:32;1.40;;;0.60;;
47053;SDS011;32811;52.382;5.270;2022-12-08T09:23:59;1.70;;;0.50;;
47053;SDS011;32811;52.382;5.270;2022-12-08T09:26:26;0.38;;;0.38;;
47053;SDS011;32811;52.382;5.270;2022-12-08T09:28:53;1.33;;;0.57;;
47053;SDS011;32811;52.382;5.270;2022-12-08T09:31:21;1.70;;;0.35;;
47053;SDS011;32811;52.382;5.270;2022-12-08T09:33:49;1.13;;;0.40;;
47053;SDS011;32811;52.382;5.270;2022-12-08T09:36:19;0.55;;;0.30;;
47053;SDS011;32811;52.382;5.270;2022-12-08T09:38:46;1.48;;;0.22;;
47053;SDS011;32811;52.382;5.270;2022-12-08T09:41:14;5.80;;;0.90;;
47053;SDS011;32811;52.382;5.270;2022-12-08T09:44:15;1.55;;;0.60;;
47053;SDS011;32811;52.382;5.270;2022-12-08T09:47:18;2.00;;;0.43;;
47053;SDS011;32811;52.382;5.270;2022-12-08T09:49:52;5.43;;;1.33;;
47053;SDS011;32811;52.382;5.270;2022-12-08T09:52:28;1.15;;;0.20;;
47053;SDS011;32811;52.382;5.270;2022-12-08T09:54:59;0.68;;;0.28;;
47053;SDS011;32811;52.382;5.270;2022-12-08T09:57:29;3.25;;;0.60;;
47053;SDS011;32811;52.382;5.270;2022-12-08T09:59:58;1.40;;;0.45;;
47053;SDS011;32811;52.382;5.270;2022-12-08T10:02:31;3.33;;;0.63;;
47053;SDS011;32811;52.382;5.270;2022-12-08T10:04:58;1.67;;;1.10;;
47053;SDS011;32811;52.382;5.270;2022-12-08T10:12:27;0.40;;;0.40;;
47053;SDS011;32811;52.382;5.270;2022-12-08T10:18:03;1.48;;;0.40;;
47053;SDS011;32811;52.382;5.270;2022-12-08T10:20:46;7.28;;;0.50;;
47053;SDS011;32811;52.382;5.270;2022-12-08T10:23:19;1.02;;;0.30;;
47053;SDS011;32811;52.382;5.270;2022-12-08T10:26:12;1.42;;;0.20;;
47053;SDS011;32811;52.382;5.270;2022-12-08T10:28:41;1.27;;;0.10;;
47053;SDS011;32811;52.382;5.270;2022-12-08T10:31:14;0.65;;;0.30;;
47053;SDS011;32811;52.382;5.270;2022-12-08T10:33:58;1.55;;;0.40;;
47053;SDS011;32811;52.382;5.270;2022-12-08T10:37:08;0.50;;;0.38;;
47053;SDS011;32811;52.382;5.270;2022-12-08T10:42:07;0.82;;;0.32;;
47053;SDS011;32811;52.382;5.270;2022-12-08T10:47:40;1.85;;;0.60;;
47053;SDS011;32811;52.382;5.270;2022-12-08T10:53:09;0.77;;;0.47;;
47053;SDS011;32811;52.382;5.270;2022-12-08T10:55:49;0.82;;;0.30;;
47053;SDS011;32811;52.382;5.270;2022-12-08T10:58:25;0.95;;;0.40;;
47053;SDS011;32811;52.382;5.270;2022-12-08T11:00:52;0.45;;;0.30;;
47053;SDS011;32811;52.382;5.270;2022-12-08T11:03:28;1.00;;;0.47;;
47053;SDS011;32811;52.382;5.270;2022-12-08T11:05:58;0.60;;;0.60;;
47053;SDS011;32811;52.382;5.270;2022-12-08T11:08:42;0.30;;;0.20;;
47053;SDS011;32811;52.382;5.270;2022-12-08T11:11:13;4.88;;;0.75;;
47053;SDS011;32811;52.382;5.270;2022-12-08T11:13:40;1.50;;;0.30;;
47053;SDS011;32811;52.382;5.270;2022-12-08T11:16:07;0.75;;;0.20;;
47053;SDS011;32811;52.382;5.270;2022-12-08T11:18:41;0.98;;;0.30;;
47053;SDS011;32811;52.382;5.270;2022-12-08T11:21:14;6.00;;;0.43;;
47053;SDS011;32811;52.382;5.270;2022-12-08T11:23:47;2.47;;;0.40;;
47053;SDS011;32811;52.382;5.270;2022-12-08T11:28:57;1.15;;;0.20;;
47053;SDS011;32811;52.382;5.270;2022-12-08T11:31:32;2.33;;;0.45;;
47053;SDS011;32811;52.382;5.270;2022-12-08T11:34:02;2.72;;;0.43;;
47053;SDS011;32811;52.382;5.270;2022-12-08T11:36:29;2.10;;;0.40;;
47053;SDS011;32811;52.382;5.270;2022-12-08T11:39:01;2.03;;;0.40;;
47053;SDS011;32811;52.382;5.270;2022-12-08T11:41:32;1.20;;;0.40;;
47053;SDS011;32811;52.382;5.270;2022-12-08T11:46:52;2.67;;;1.13;;
47053;SDS011;32811;52.382;5.270;2022-12-08T11:49:32;2.25;;;0.50;;
47053;SDS011;32811;52.382;5.270;2022-12-08T11:52:02;3.58;;;0.52;;
47053;SDS011;32811;52.382;5.270;2022-12-08T11:57:51;0.60;;;0.43;;
47053;SDS011;32811;52.382;5.270;2022-12-08T12:00:21;1.08;;;0.93;;
47053;SDS011;32811;52.382;5.270;2022-12-08T12:02:49;1.42;;;0.70;;
47053;SDS011;32811;52.382;5.270;2022-12-08T12:17:03;0.68;;;0.20;;
47053;SDS011;32811;52.382;5.270;2022-12-08T12:19:48;1.52;;;0.70;;
47053;SDS011;32811;52.382;5.270;2022-12-08T12:22:16;1.02;;;0.50;;
47053;SDS011;32811;52.382;5.270;2022-12-08T12:24:48;1.08;;;0.50;;
47053;SDS011;32811;52.382;5.270;2022-12-08T12:29:56;2.45;;;0.40;;
47053;SDS011;32811;52.382;5.270;2022-12-08T12:32:26;0.35;;;0.35;;
47053;SDS011;32811;52.382;5.270;2022-12-08T12:35:11;0.50;;;0.43;;
47053;SDS011;32811;52.382;5.270;2022-12-08T12:37:54;0.88;;;0.40;;
47053;SDS011;32811;52.382;5.270;2022-12-08T12:40:24;1.05;;;0.40;;
47053;SDS011;32811;52.382;5.270;2022-12-08T12:52:59;4.53;;;1.60;;
47053;SDS011;32811;52.382;5.270;2022-12-08T12:58:45;0.80;;;0.52;;
47053;SDS011;32811;52.382;5.270;2022-12-08T13:03:48;1.75;;;0.73;;
47053;SDS011;32811;52.382;5.270;2022-12-08T13:06:35;1.35;;;0.60;;
47053;SDS011;32811;52.382;5.270;2022-12-08T13:09:06;1.00;;;0.47;;
47053;SDS011;32811;52.382;5.270;2022-12-08T13:12:16;0.90;;;0.57;;
47053;SDS011;32811;52.382;5.270;2022-12-08T13:14:48;1.92;;;0.50;;
47053;SDS011;32811;52.382;5.270;2022-12-08T13:17:19;0.75;;;0.55;;
47053;SDS011;32811;52.382;5.270;2022-12-08T13:19:56;0.95;;;0.63;;
47053;SDS011;32811;52.382;5.270;2022-12-08T13:28:27;1.52;;;0.68;;
47053;SDS011;32811;52.382;5.270;2022-12-08T13:30:56;2.38;;;0.65;;
47053;SDS011;32811;52.382;5.270;2022-12-08T13:33:25;0.90;;;0.50;;
47053;SDS011;32811;52.382;5.270;2022-12-08T13:35:59;0.95;;;0.73;;
47053;SDS011;32811;52.382;5.270;2022-12-08T13:38:31;3.40;;;0.95;;
47053;SDS011;32811;52.382;5.270;2022-12-08T13:41:02;2.13;;;0.52;;
47053;SDS011;32811;52.382;5.270;2022-12-08T13:43:36;1.67;;;1.27;;
47053;SDS011;32811;52.382;5.270;2022-12-08T13:46:39;1.15;;;0.50;;
47053;SDS011;32811;52.382;5.270;2022-12-08T13:49:34;0.65;;;0.55;;
47053;SDS011;32811;52.382;5.270;2022-12-08T13:52:34;3.28;;;1.33;;
47053;SDS011;32811;52.382;5.270;2022-12-08T13:55:31;1.20;;;0.70;;
47053;SDS011;32811;52.382;5.270;2022-12-08T13:58:25;8.32;;;3.05;;
47053;SDS011;32811;52.382;5.270;2022-12-08T14:03:51;8.57;;;4.03;;
47053;SDS011;32811;52.382;5.270;2022-12-08T14:06:42;4.28;;;2.17;;
47053;SDS011;32811;52.382;5.270;2022-12-08T14:09:18;6.57;;;2.35;;
47053;SDS011;32811;52.382;5.270;2022-12-08T14:11:50;2.08;;;1.15;;
47053;SDS011;32811;52.382;5.270;2022-12-08T14:14:29;3.95;;;1.77;;
47053;SDS011;32811;52.382;5.270;2022-12-08T14:17:19;1.10;;;1.00;;
47053;SDS011;32811;52.382;5.270;2022-12-08T14:20:03;3.10;;;1.38;;
47053;SDS011;32811;52.382;5.270;2022-12-08T14:22:43;1.67;;;1.33;;
47053;SDS011;32811;52.382;5.270;2022-12-08T14:25:15;2.90;;;1.63;;
47053;SDS011;32811;52.382;5.270;2022-12-08T14:27:43;3.35;;;2.08;;
47053;SDS011;32811;52.382;5.270;2022-12-08T14:32:54;2.20;;;1.67;;
47053;SDS011;32811;52.382;5.270;2022-12-08T14:35:30;1.20;;;1.10;;
47053;SDS011;32811;52.382;5.270;2022-12-08T14:38:00;4.70;;;2.35;;
47053;SDS011;32811;52.382;5.270;2022-12-08T14:43:11;3.20;;;1.63;;
47053;SDS011;32811;52.382;5.270;2022-12-08T14:48:26;3.80;;;2.47;;
47053;SDS011;32811;52.382;5.270;2022-12-08T14:53:38;2.95;;;1.13;;
47053;SDS011;32811;52.382;5.270;2022-12-08T14:56:52;2.88;;;1.10;;
47053;SDS011;32811;52.382;5.270;2022-12-08T15:01:34;1.40;;;1.00;;
47053;SDS011;32811;52.382;5.270;2022-12-08T15:06:44;2.35;;;1.15;;
47053;SDS011;32811;52.382;5.270;2022-12-08T15:09:24;1.17;;;1.08;;
47053;SDS011;32811;52.382;5.270;2022-12-08T15:11:59;5.53;;;2.97;;
47053;SDS011;32811;52.382;5.270;2022-12-08T15:14:59;5.30;;;1.60;;
47053;SDS011;32811;52.382;5.270;2022-12-08T15:23:04;2.75;;;1.20;;
47053;SDS011;32811;52.382;5.270;2022-12-08T15:25:31;1.75;;;0.80;;
47053;SDS011;32811;52.382;5.270;2022-12-08T15:28:00;5.63;;;1.10;;
47053;SDS011;32811;52.382;5.270;2022-12-08T15:30:28;3.13;;;1.75;;
47053;SDS011;32811;52.382;5.270;2022-12-08T15:32:55;4.03;;;1.40;;
47053;SDS011;32811;52.382;5.270;2022-12-08T15:35:22;1.98;;;1.10;;
47053;SDS011;32811;52.382;5.270;2022-12-08T15:37:49;3.33;;;1.42;;
47053;SDS011;32811;52.382;5.270;2022-12-08T15:40:16;3.28;;;1.95;;
47053;SDS011;32811;52.382;5.270;2022-12-08T15:42:45;3.63;;;1.67;;
47053;SDS011;32811;52.382;5.270;2022-12-08T15:45:12;3.47;;;2.67;;
47053;SDS011;32811;52.382;5.270;2022-12-08T15:47:43;2.78;;;2.22;;
47053;SDS011;32811;52.382;5.270;2022-12-08T15:50:19;4.18;;;2.03;;
47053;SDS011;32811;52.382;5.270;2022-12-08T15:52:47;6.40;;;3.60;;
47053;SDS011;32811;52.382;5.270;2022-12-08T15:55:19;2.00;;;1.65;;
47053;SDS011;32811;52.382;5.270;2022-12-08T15:57:47;3.35;;;1.50;;
47053;SDS011;32811;52.382;5.270;2022-12-08T16:00:36;1.60;;;1.20;;
47053;SDS011;32811;52.382;5.270;2022-12-08T16:03:27;2.30;;;1.55;;
47053;SDS011;32811;52.382;5.270;2022-12-08T16:06:16;3.00;;;2.78;;
47053;SDS011;32811;52.382;5.270;2022-12-08T16:09:08;4.85;;;2.70;;
47053;SDS011;32811;52.382;5.270;2022-12-08T16:11:41;2.63;;;2.38;;
47053;SDS011;32811;52.382;5.270;2022-12-08T16:14:36;1.80;;;1.60;;
47053;SDS011;32811;52.382;5.270;2022-12-08T16:17:23;1.67;;;1.58;;
47053;SDS011;32811;52.382;5.270;2022-12-08T16:19:51;2.42;;;1.92;;
47053;SDS011;32811;52.382;5.270;2022-12-08T16:22:19;1.42;;;1.33;;
47053;SDS011;32811;52.382;5.270;2022-12-08T16:25:08;2.80;;;2.00;;
47053;SDS011;32811;52.382;5.270;2022-12-08T16:27:45;5.53;;;4.68;;
47053;SDS011;32811;52.382;5.270;2022-12-08T16:30:33;5.03;;;4.53;;
47053;SDS011;32811;52.382;5.270;2022-12-08T16:33:01;6.30;;;4.25;;
47053;SDS011;32811;52.382;5.270;2022-12-08T16:35:28;4.45;;;3.35;;
47053;SDS011;32811;52.382;5.270;2022-12-08T16:37:55;3.70;;;2.92;;
47053;SDS011;32811;52.382;5.270;2022-12-08T16:40:22;2.70;;;2.45;;
47053;SDS011;32811;52.382;5.270;2022-12-08T16:42:49;4.40;;;3.10;;
47053;SDS011;32811;52.382;5.270;2022-12-08T16:45:20;3.20;;;2.90;;
47053;SDS011;32811;52.382;5.270;2022-12-08T16:47:50;4.80;;;3.28;;
47053;SDS011;32811;52.382;5.270;2022-12-08T16:52:48;3.80;;;3.28;;
47053;SDS011;32811;52.382;5.270;2022-12-08T16:55:16;3.30;;;2.30;;
47053;SDS011;32811;52.382;5.270;2022-12-08T16:57:44;3.97;;;2.65;;
47053;SDS011;32811;52.382;5.270;2022-12-08T17:00:21;4.28;;;3.15;;
47053;SDS011;32811;52.382;5.270;2022-12-08T17:02:50;6.28;;;4.50;;
47053;SDS011;32811;52.382;5.270;2022-12-08T17:05:18;7.22;;;4.93;;